Terminal Aerodrome Forecast
Issued by NWS Cleveland, OH

Home | Current Version | Previous Version | Graphics & Text | Print | Product List | Glossary On
Versions: 1 2 3 4 5 6 7 8 9 10 11 12 13 14 15 16 17 18 19 20 21 22 23 24 25
460
FTUS41 KCLE 282326
TAFMFD
TAF
KMFD 282326Z 2900/2924 02007KT P6SM OVC009
      TEMPO 2902/2903 -SHRA
     FM290300 04006KT 6SM BR OVC003
     FM290500 VRB03KT 1 1/2SM -DZ BR OVC003
     FM291100 36004KT 1/2SM FG OVC003
     FM291300 35005KT 1 1/2SM BR OVC003
     FM291500 35006KT P6SM OVC007
     FM291800 35007KT P6SM OVC015=

USA.gov is the U.S. government's official web portal to all federal, state and local government web resources and services.